Time;durP1;ratioP1;P1;durP2;ratioP2;P2;SDS_P1;SDS_P2;PMS_P1;PMS_P2;Temp;Humidity;BMP_temperature;BMP_pressure;BME280_temperature;BME280_humidity;BME280_pressure;Samples;Min_cycle;Max_cycle;Signal;HPM_P1;HPM_P2
2023/05/17 00:01:16;;;;;;;0.60;0.60;;;;;;;6.98;71.77;97249.47;29395;239;63009;-91
2023/05/17 00:02:48;;;;;;;0.60;0.60;;;;;;;6.93;72.18;97247.56;29417;199;63007;-90
2023/05/17 00:04:22;;;;;;;0.60;0.60;;;;;;;6.95;70.58;97239.19;29394;233;64013;-93
2023/05/17 00:05:42;;;;;;;;;;;;;;;;;;;;;
2023/05/17 00:07:05;;;;;;;0.50;0.50;;;;;;;7.10;69.40;97236.59;29394;215;64013;-91
2023/05/17 00:08:23;;;;;;;0.50;0.50;;;;;;;7.12;69.77;97239.03;29395;287;63005;-91
2023/05/17 00:09:32;;;;;;;0.57;0.57;;;;;;;7.12;70.00;97239.03;29395;222;63009;-89
2023/05/17 00:10:12;;;;;;;0.50;0.50;;;;;;;7.05;69.49;97231.16;29395;203;63005;-91
2023/05/17 00:11:04;;;;;;;0.50;0.50;;;;;;;7.10;69.67;97233.09;29395;214;63009;-90
2023/05/17 00:12:17;;;;;;;0.50;0.50;;;;;;;7.04;69.34;97232.25;29394;223;64013;-93
2023/05/17 00:12:52;;;;;;;0.50;0.50;;;;;;;7.12;69.67;97234.44;29395;202;63004;-90
2023/05/17 00:13:38;;;;;;;;;;;;;;;;;;;;;
2023/05/17 00:14:12;;;;;;;0.50;0.50;;;;;;;7.07;70.02;97242.53;29395;202;63005;-91
2023/05/17 00:14:47;;;;;;;0.50;0.50;;;;;;;7.08;70.39;97241.44;29395;219;63009;-91
2023/05/17 00:15:20;;;;;;;0.55;0.55;;;;;;;7.00;70.69;97242.75;29395;216;63005;-92
2023/05/17 00:15:52;;;;;;;0.50;0.50;;;;;;;7.01;70.83;97244.38;29395;273;63009;-91
2023/05/17 00:16:24;;;;;;;0.52;0.52;;;;;;;6.92;71.61;97239.75;29395;204;63005;-91
2023/05/17 00:17:04;;;;;;;0.50;0.50;;;;;;;6.95;71.93;97255.38;29394;222;64013;-91
2023/05/17 00:17:36;;;;;;;0.50;0.50;;;;;;;6.84;72.62;97246.44;29394;205;64009;-90
2023/05/17 00:18:14;;;;;;;0.60;0.60;;;;;;;6.84;72.37;97246.44;29395;216;63009;-90
2023/05/17 00:18:45;;;;;;;0.60;0.60;;;;;;;6.85;72.29;97255.34;29395;258;63004;-91
2023/05/17 00:19:16;;;;;;;0.50;0.50;;;;;;;6.84;72.76;97253.72;29395;270;63017;-90
2023/05/17 00:19:48;;;;;;;0.50;0.50;;;;;;;6.87;72.54;97243.22;29395;216;63004;-91
2023/05/17 00:20:19;;;;;;;0.52;0.52;;;;;;;6.93;71.55;97249.47;29395;245;63009;-90
2023/05/17 00:20:53;;;;;;;0.60;0.60;;;;;;;6.92;70.69;97245.16;29395;198;63004;-91
2023/05/17 00:21:28;;;;;;;0.60;0.60;;;;;;;6.95;70.54;97245.41;29395;214;63015;-91
2023/05/17 00:22:07;;;;;;;0.50;0.50;;;;;;;6.92;71.17;97251.34;29394;222;64009;-90
2023/05/17 00:22:55;;;;;;;0.50;0.50;;;;;;;6.90;71.90;97258.09;29395;275;63017;-89
2023/05/17 00:23:28;;;;;;;0.50;0.50;;;;;;;6.80;72.83;97252.62;29395;218;63005;-89
2023/05/17 00:24:02;;;;;;;0.50;0.50;;;;;;;6.84;72.51;97242.94;29395;233;63009;-89
2023/05/17 00:24:49;;;;;;;0.50;0.50;;;;;;;6.82;72.97;97251.28;29395;208;63005;-91
2023/05/17 00:25:33;;;;;;;0.50;0.50;;;;;;;6.77;73.63;97259.34;29395;202;63009;-91
2023/05/17 00:26:29;;;;;;;0.50;0.50;;;;;;;6.71;73.34;97254.97;29395;233;63018;-89
2023/05/17 00:27:03;;;;;;;0.50;0.50;;;;;;;6.64;71.91;97230.09;29395;204;63009;-90
2023/05/17 00:27:36;;;;;;;0.50;0.50;;;;;;;6.72;71.92;97246.62;29394;225;64009;-90
2023/05/17 00:28:11;;;;;;;0.50;0.50;;;;;;;6.69;71.75;97252.53;29394;252;64013;-90
2023/05/17 00:28:45;;;;;;;0.50;0.50;;;;;;;6.66;72.21;97246.84;29394;203;64008;-91
2023/05/17 00:29:18;;;;;;;0.60;0.60;;;;;;;6.61;72.84;97250.31;29395;211;63009;-91
2023/05/17 00:30:07;;;;;;;0.50;0.50;;;;;;;6.62;74.02;97256.50;29395;222;63001;-91
2023/05/17 00:31:54;;;;;;;0.64;0.64;;;;;;;6.51;73.33;97252.94;87951;212;138000;-92
2023/05/17 00:32:27;;;;;;;0.55;0.55;;;;;;;6.55;73.80;97255.94;29394;216;64009;-90
2023/05/17 00:33:42;;;;;;;0.60;0.60;;;;;;;6.47;73.77;97254.53;29395;202;63005;-92
2023/05/17 00:34:40;;;;;;;0.60;0.60;;;;;;;6.43;74.33;97258.81;29394;225;64013;-91
2023/05/17 00:35:16;;;;;;;0.60;0.60;;;;;;;6.49;74.53;97268.56;29395;239;63005;-89
2023/05/17 00:35:48;;;;;;;0.50;0.50;;;;;;;6.49;74.92;97271.25;29395;246;63009;-91
2023/05/17 00:36:21;;;;;;;0.50;0.50;;;;;;;6.42;74.75;97262.56;29395;249;63007;-90
2023/05/17 00:36:59;;;;;;;0.50;0.50;;;;;;;6.46;75.48;97279.87;29395;222;63004;-91
2023/05/17 00:37:34;;;;;;;0.50;0.50;;;;;;;6.41;75.35;97266.34;29395;230;63004;-91
2023/05/17 00:38:31;;;;;;;0.60;0.60;;;;;;;6.43;76.08;97269.59;29395;207;63008;-93
2023/05/17 00:39:08;;;;;;;0.60;0.60;;;;;;;6.37;76.47;97270.63;29394;202;64009;-91
2023/05/17 00:40:34;;;;;;;0.60;0.60;;;;;;;6.35;75.40;97264.66;29395;202;63009;-91
2023/05/17 00:42:04;;;;;;;0.50;0.50;;;;;;;6.39;75.66;97273.88;29395;235;63005;-90
2023/05/17 00:42:40;;;;;;;0.60;0.60;;;;;;;6.40;75.00;97270.09;29395;263;63009;-91
2023/05/17 00:43:17;;;;;;;0.60;0.60;;;;;;;6.41;74.95;97265.53;29395;202;63004;-92
2023/05/17 00:44:03;;;;;;;0.60;0.60;;;;;;;6.41;74.84;97271.72;29417;202;63009;-91
2023/05/17 00:45:00;;;;;;;0.50;0.50;;;;;;;6.42;75.24;97270.66;29371;220;64009;-91
2023/05/17 00:45:35;;;;;;;0.50;0.50;;;;;;;6.40;76.43;97275.50;29395;205;63008;-92
2023/05/17 00:46:13;;;;;;;0.60;0.60;;;;;;;6.36;75.95;97264.41;29395;196;63004;-90
2023/05/17 00:46:45;;;;;;;0.60;0.60;;;;;;;6.46;75.35;97261.00;29395;268;63009;-92
2023/05/17 00:47:20;;;;;;;0.50;0.50;;;;;;;6.39;73.89;97257.69;29395;234;63005;-92
2023/05/17 00:47:59;;;;;;;0.50;0.50;;;;;;;6.42;73.99;97262.56;29395;299;63009;-91
2023/05/17 00:48:52;;;;;;;0.60;0.60;;;;;;;6.49;74.75;97263.19;29395;198;63005;-92
2023/05/17 00:49:26;;;;;;;0.50;0.50;;;;;;;6.48;74.80;97266.94;29395;354;63009;-91
2023/05/17 00:50:16;;;;;;;;;;;;;;;;;;;;;
2023/05/17 01:29:16;;;;;;;0.60;0.60;;;;;;;6.05;78.79;97292.12;29394;245;64013;-90
2023/05/17 01:29:53;;;;;;;0.60;0.60;;;;;;;6.08;77.73;97293.50;29394;283;64009;-91
2023/05/17 01:30:29;;;;;;;0.60;0.60;;;;;;;6.04;77.41;97280.56;29395;233;63008;-92
2023/05/17 01:31:03;;;;;;;0.60;0.60;;;;;;;6.13;77.19;97285.50;29395;236;63005;-92
2023/05/17 01:31:38;;;;;;;0.50;0.50;;;;;;;6.14;76.23;97292.50;29395;197;63009;-89
2023/05/17 01:32:13;;;;;;;0.60;0.60;;;;;;;6.15;76.19;97288.75;29395;209;63005;-91
2023/05/17 01:32:46;;;;;;;0.60;0.60;;;;;;;6.17;76.20;97294.69;29395;196;63009;-90
2023/05/17 01:33:20;;;;;;;0.55;0.55;;;;;;;6.17;76.55;97292.00;29395;301;63005;-90
2023/05/17 01:33:53;;;;;;;0.60;0.60;;;;;;;6.12;76.63;97283.88;29395;244;63009;-90
2023/05/17 01:34:28;;;;;;;0.60;0.60;;;;;;;6.18;77.22;97296.31;29395;211;63005;-91
2023/05/17 01:35:00;;;;;;;0.60;0.60;;;;;;;6.19;77.17;97292.56;29394;222;64013;-90
2023/05/17 01:35:39;;;;;;;0.60;0.60;;;;;;;6.16;77.44;97295.75;29395;237;63004;-91
2023/05/17 01:36:19;;;;;;;0.60;0.60;;;;;;;6.18;77.05;97299.00;29395;298;63004;-91
2023/05/17 01:37:03;;;;;;;0.55;0.55;;;;;;;6.17;77.55;97292.00;29395;237;63004;-91
2023/05/17 01:37:41;;;;;;;0.50;0.50;;;;;;;6.12;77.77;97281.16;29395;204;63008;-90
2023/05/17 01:38:26;;;;;;;0.60;0.60;;;;;;;6.19;77.60;97295.25;29422;230;63004;-90
2023/05/17 01:39:34;;;;;;;0.60;0.60;;;;;;;6.17;77.65;97290.13;29395;203;63009;-90
2023/05/17 01:40:28;;;;;;;0.57;0.57;;;;;;;6.23;77.45;97293.69;29394;202;64009;-91
2023/05/17 01:41:12;;;;;;;0.60;0.60;;;;;;;6.23;77.45;97290.97;29395;296;63009;-92
2023/05/17 01:41:57;;;;;;;0.60;0.60;;;;;;;6.27;76.45;97292.06;29395;218;63005;-93
2023/05/17 01:42:47;;;;;;;0.50;0.50;;;;;;;6.27;75.50;97297.47;29395;263;63009;-91
2023/05/17 01:43:38;;;;;;;0.60;0.60;;;;;;;6.23;75.98;97293.69;29395;254;63004;-90
2023/05/17 01:44:30;;;;;;;0.60;0.60;;;;;;;6.19;77.06;97289.88;29395;272;63017;-90
2023/05/17 01:45:33;;;;;;;0.60;0.60;;;;;;;6.17;77.72;97294.69;29395;226;63004;-90
2023/05/17 01:46:46;;;;;;;0.60;0.60;;;;;;;6.07;78.17;97283.81;29394;262;64014;-91
2023/05/17 01:48:10;;;;;;;1.52;1.45;;;;;;;6.13;77.78;97291.69;29395;208;63005;-91
2023/05/17 01:49:42;;;;;;;0.50;0.50;;;;;;;6.08;78.33;97293.50;29395;220;63009;-92
2023/05/17 01:50:55;;;;;;;0.60;0.60;;;;;;;5.97;78.88;97287.19;29395;270;63004;-90
2023/05/17 01:52:16;;;;;;;0.57;0.57;;;;;;;5.98;78.63;97295.03;29394;218;64013;-91
2023/05/17 01:53:43;;;;;;;0.60;0.60;;;;;;;5.94;78.63;97296.59;29395;232;63004;-91
2023/05/17 01:54:57;;;;;;;0.50;0.50;;;;;;;5.96;79.24;97302.56;29395;218;63009;-91
2023/05/17 01:55:59;;;;;;;0.57;0.57;;;;;;;5.91;79.65;97299.78;29394;203;64009;-89
2023/05/17 01:56:38;;;;;;;0.60;0.60;;;;;;;5.82;78.93;97301.31;29394;257;64013;-91
2023/05/17 01:57:22;;;;;;;0.60;0.60;;;;;;;5.83;79.36;97297.53;29395;209;63004;-91
2023/05/17 01:58:09;;;;;;;0.50;0.50;;;;;;;5.83;79.59;97297.53;29395;238;63009;-91
2023/05/17 01:59:09;;;;;;;0.50;0.50;;;;;;;5.76;80.00;97285.34;29395;196;63000;-91
2023/05/17 02:00:23;;;;;;;0.50;0.50;;;;;;;5.79;80.74;97301.00;29395;215;63008;-91
2023/05/17 03:51:37;;;;;;;0.60;0.60;;;;;;;4.44;89.35;97348.84;29396;197;63001;-60
2023/05/17 03:53:17;;;;;;;0.60;0.60;;;;;;;4.42;89.06;97361.69;88174;224;64005;-55
2023/05/17 03:53:56;;;;;;;0.60;0.60;;;;;;;4.38;88.95;97365.91;29394;213;64009;-60
2023/05/17 03:54:27;;;;;;;0.60;0.60;;;;;;;4.36;89.63;97360.78;29395;240;63004;-54
2023/05/17 03:54:58;;;;;;;0.60;0.60;;;;;;;4.34;89.71;97365.59;29395;287;63009;-54
2023/05/17 03:55:29;;;;;;;0.60;0.60;;;;;;;4.32;90.38;97361.50;29395;267;63004;-57
2023/05/17 03:56:01;;;;;;;0.60;0.60;;;;;;;4.31;91.16;97366.06;29395;202;63008;-54
2023/05/17 03:56:32;;;;;;;0.57;0.57;;;;;;;4.30;91.35;97360.94;29395;202;63004;-54
2023/05/17 03:57:07;;;;;;;0.60;0.60;;;;;;;4.31;91.28;97359.88;29395;203;63009;-54
2023/05/17 03:57:39;;;;;;;0.55;0.55;;;;;;;4.33;91.35;97363.13;29395;348;63005;-54
2023/05/17 03:58:10;;;;;;;0.60;0.60;;;;;;;4.36;91.00;97362.66;29395;198;63009;-55
2023/05/17 03:58:41;;;;;;;0.60;0.60;;;;;;;4.40;90.93;97358.44;29394;203;64009;-54
2023/05/17 03:59:13;;;;;;;0.60;0.60;;;;;;;4.42;90.53;97360.88;29395;228;63009;-54
2023/05/17 03:59:44;;;;;;;0.60;0.60;;;;;;;4.41;90.62;97361.94;29395;224;63005;-55
2023/05/17 04:00:20;;;;;;;0.60;0.60;;;;;;;4.41;90.60;97360.06;29395;306;63009;-54
2023/05/17 04:00:52;;;;;;;0.60;0.60;;;;;;;4.44;90.66;97361.44;29395;215;63004;-56
2023/05/17 04:01:23;;;;;;;0.50;0.50;;;;;;;4.47;90.38;97366.34;29395;259;63009;-56
2023/05/17 04:01:54;;;;;;;0.60;0.60;;;;;;;4.49;90.51;97361.53;29394;231;64004;-55
2023/05/17 04:02:25;;;;;;;0.60;0.60;;;;;;;4.49;90.22;97362.38;29395;232;63009;-55
2023/05/17 04:02:57;;;;;;;0.60;0.60;;;;;;;4.48;89.89;97358.03;29395;393;63004;-54
2023/05/17 04:03:28;;;;;;;0.60;0.60;;;;;;;4.49;89.83;97362.38;29395;234;63008;-55
2023/05/17 04:04:02;;;;;;;0.60;0.60;;;;;;;4.50;89.96;97358.63;29394;258;64009;-55
2023/05/17 04:04:34;;;;;;;0.60;0.60;;;;;;;4.52;89.56;97361.03;29395;239;63019;-55
2023/05/17 04:05:07;;;;;;;0.60;0.60;;;;;;;4.52;89.51;97367.22;29395;213;63005;-54
2023/05/17 04:05:40;;;;;;;0.60;0.60;;;;;;;4.52;89.55;97361.84;29395;222;63009;-54
2023/05/17 04:06:13;;;;;;;0.60;0.60;;;;;;;4.54;89.65;97365.09;29395;233;63005;-54
2023/05/17 04:06:44;;;;;;;0.50;0.50;;;;;;;4.53;89.52;97358.09;29395;202;63009;-54
2023/05/17 04:07:16;;;;;;;0.60;0.60;;;;;;;4.54;89.67;97369.66;29395;284;63005;-54
2023/05/17 04:07:47;;;;;;;0.50;0.50;;;;;;;4.52;89.22;97361.84;29395;377;63009;-54
2023/05/17 04:08:19;;;;;;;0.60;0.60;;;;;;;4.52;90.05;97369.09;29395;218;63004;-54
2023/05/17 04:08:52;;;;;;;0.52;0.52;;;;;;;4.50;89.67;97368.56;29395;349;63009;-55
2023/05/17 04:09:24;;;;;;;0.60;0.60;;;;;;;4.48;89.89;97363.41;29394;207;64009;-58
2023/05/17 04:10:01;;;;;;;0.60;0.60;;;;;;;4.46;90.78;97368.22;29394;196;64013;-56
2023/05/17 04:10:33;;;;;;;0.60;0.60;;;;;;;4.46;91.10;97362.84;29395;202;63016;-55
2023/05/17 04:11:11;;;;;;;0.57;0.57;;;;;;;4.44;90.59;97367.66;29395;232;63009;-56
2023/05/17 04:11:43;;;;;;;0.55;0.55;;;;;;;4.43;90.44;97368.69;29395;224;63005;-56
2023/05/17 04:12:15;;;;;;;0.50;0.50;;;;;;;4.41;90.24;97370.81;29395;199;63009;-56
2023/05/17 04:12:47;;;;;;;0.50;0.50;;;;;;;4.38;91.26;97369.41;29395;211;63005;-56
2023/05/17 04:13:18;;;;;;;0.50;0.50;;;;;;;4.38;92.16;97371.28;29395;261;63009;-55
2023/05/17 04:13:49;;;;;;;0.60;0.60;;;;;;;4.39;92.40;97370.25;29395;307;63005;-55
2023/05/17 04:14:21;;;;;;;0.60;0.60;;;;;;;4.37;92.57;97375.84;29395;381;63009;-55
2023/05/17 04:14:56;;;;;;;2.80;2.55;;;;;;;4.37;92.41;97377.72;29395;202;63005;-56
2023/05/17 04:15:27;;;;;;;0.60;0.60;;;;;;;4.38;92.83;97372.09;29394;211;64013;-55
2023/05/17 04:16:00;;;;;;;0.60;0.60;;;;;;;4.41;92.71;97381.56;29395;223;63004;-56
2023/05/17 04:16:31;;;;;;;0.50;0.50;;;;;;;4.44;92.45;97381.06;29395;228;63020;-56
2023/05/17 04:17:02;;;;;;;0.60;0.60;;;;;;;4.42;92.56;97380.50;29395;235;63017;-56
2023/05/17 04:17:35;;;;;;;0.50;0.50;;;;;;;4.44;92.27;97375.72;29395;203;63013;-56
2023/05/17 04:18:07;;;;;;;0.60;0.60;;;;;;;4.45;91.73;97380.03;29394;215;64008;-55
2023/05/17 04:18:40;;;;;;;0.60;0.60;;;;;;;4.47;91.30;97380.59;29395;204;63009;-56
2023/05/17 04:19:11;;;;;;;3.50;1.87;;;;;;;4.47;91.69;97385.16;29395;208;63005;-55
2023/05/17 04:19:42;;;;;;;0.60;0.60;;;;;;;4.46;91.91;97384.34;29395;208;63009;-55
2023/05/17 04:20:14;;;;;;;0.60;0.60;;;;;;;4.47;91.72;97380.59;29394;237;64005;-56
2023/05/17 04:20:45;;;;;;;0.60;0.60;;;;;;;4.47;91.59;97377.91;29395;230;63021;-55
2023/05/17 04:21:16;;;;;;;0.60;0.60;;;;;;;4.49;91.74;97373.13;29395;197;63005;-55
2023/05/17 04:21:47;;;;;;;0.60;0.60;;;;;;;4.51;91.19;97375.53;29395;198;63009;-55
2023/05/17 04:22:20;;;;;;;0.60;0.60;;;;;;;4.50;91.88;97390.88;29395;239;63005;-56
2023/05/17 04:22:52;;;;;;;0.50;0.50;;;;;;;4.50;91.46;97382.81;29395;202;63015;-55
2023/05/17 04:23:23;;;;;;;0.60;0.60;;;;;;;4.51;91.30;97381.72;29395;241;63004;-55
2023/05/17 04:23:55;;;;;;;0.60;0.60;;;;;;;4.53;91.47;97387.66;29395;220;63019;-56
2023/05/17 04:24:26;;;;;;;0.60;0.60;;;;;;;4.54;91.44;97386.59;29395;197;63004;-56
2023/05/17 04:24:57;;;;;;;0.60;0.60;;;;;;;4.56;91.41;97384.50;29395;216;63009;-56
2023/05/17 04:25:28;;;;;;;0.60;0.60;;;;;;;4.57;91.35;97391.50;29395;196;63004;-55
2023/05/17 04:26:00;;;;;;;0.60;0.60;;;;;;;4.59;91.37;97384.00;29395;196;63008;-55
2023/05/17 04:26:31;;;;;;;0.60;0.60;;;;;;;4.62;91.02;97388.09;29395;211;63015;-55
2023/05/17 04:27:07;;;;;;;0.60;0.60;;;;;;;4.61;90.28;97384.59;29395;283;63029;-55
2023/05/17 04:27:38;;;;;;;0.60;0.60;;;;;;;4.63;90.90;97390.53;29395;199;63008;-57
2023/05/17 04:28:10;;;;;;;0.60;0.60;;;;;;;4.64;91.04;97384.09;29394;220;64013;-55
2023/05/17 04:28:41;;;;;;;0.60;0.60;;;;;;;4.65;91.32;97385.75;29395;442;63005;-55
2023/05/17 04:29:16;;;;;;;0.60;0.60;;;;;;;4.66;91.42;97394.63;29395;196;63017;-55
2023/05/17 04:29:48;;;;;;;0.60;0.60;;;;;;;4.66;91.86;97394.63;29395;215;63018;-56
2023/05/17 04:30:20;;;;;;;0.50;0.50;;;;;;;4.66;91.70;97389.25;29395;341;63009;-55
2023/05/17 04:30:52;;;;;;;0.60;0.60;;;;;;;4.65;92.04;97393.81;29395;224;63015;-55
2023/05/17 04:31:23;;;;;;;0.60;0.60;;;;;;;4.67;92.14;97393.56;29395;234;63025;-56
2023/05/17 04:31:56;;;;;;;0.60;0.60;;;;;;;4.69;92.49;97397.62;29395;212;63004;-55
2023/05/17 04:32:27;;;;;;;0.60;0.60;;;;;;;4.71;92.32;97402.78;29395;241;63009;-56
2023/05/17 04:32:59;;;;;;;0.52;0.52;;;;;;;4.74;92.59;97401.47;29395;199;63004;-56
2023/05/17 04:33:31;;;;;;;0.60;0.60;;;;;;;4.71;92.23;97403.59;29394;205;64013;-56
2023/05/17 04:34:02;;;;;;;1.02;1.02;;;;;;;4.72;91.95;97401.72;29395;231;63005;-56
2023/05/17 04:34:33;;;;;;;0.60;0.60;;;;;;;4.74;91.68;97402.28;29395;198;63009;-55
2023/05/17 04:35:05;;;;;;;0.60;0.60;;;;;;;4.75;91.51;97411.16;29395;242;63017;-56
2023/05/17 04:35:38;;;;;;;0.60;0.60;;;;;;;4.75;91.60;97403.09;29395;258;63009;-55
2023/05/17 04:36:09;;;;;;;0.60;0.60;;;;;;;4.78;91.53;97408.00;29395;232;63005;-55
2023/05/17 04:36:40;;;;;;;0.60;0.60;;;;;;;4.78;91.54;97400.75;29395;238;63009;-55
2023/05/17 04:37:11;;;;;;;0.50;0.50;;;;;;;4.79;91.49;97401.56;29395;224;63005;-56
2023/05/17 04:38:53;;;;;;;0.57;0.57;;;;;;;4.79;91.52;97398.88;88181;216;64004;-92
2023/05/17 04:39:38;;;;;;;2.65;2.55;;;;;;;4.78;91.59;97397.25;29394;314;64009;-90
2023/05/17 04:40:18;;;;;;;0.57;0.57;;;;;;;4.83;91.43;97406.22;29395;245;63005;-90
2023/05/17 04:40:53;;;;;;;0.60;0.60;;;;;;;4.81;91.01;97402.97;29395;254;63009;-91
2023/05/17 04:41:30;;;;;;;0.60;0.60;;;;;;;4.76;90.92;97399.34;29395;246;63005;-91
2023/05/17 04:42:12;;;;;;;0.50;0.50;;;;;;;4.85;91.22;97405.97;29395;224;63009;-90
2023/05/17 04:42:46;;;;;;;0.50;0.50;;;;;;;4.85;89.83;97397.91;29395;203;63004;-90
2023/05/17 04:43:33;;;;;;;0.60;0.60;;;;;;;4.95;88.62;97408.81;29395;202;63009;-91
2023/05/17 04:44:17;;;;;;;0.60;0.60;;;;;;;4.91;87.81;97391.53;29395;237;63004;-91
2023/05/17 04:45:11;;;;;;;0.60;0.60;;;;;;;5.00;88.36;97414.28;29394;206;64013;-91
2023/05/17 04:45:55;;;;;;;0.52;0.52;;;;;;;5.02;88.83;97410.28;29395;391;63008;-92
2023/05/17 04:46:46;;;;;;;;;;;;;;;5.04;88.96;97410.84;29996;985;6005;-92
2023/05/17 04:47:27;;;;;;;0.60;0.60;;;;;;;5.08;89.00;97407.69;29399;212;64014;-92
2023/05/17 04:48:11;;;;;;;0.60;0.60;;;;;;;5.11;88.62;97413.38;29395;224;63005;-90
2023/05/17 04:48:58;;;;;;;0.60;0.60;;;;;;;5.13;88.26;97407.75;29395;310;63009;-92
2023/05/17 04:50:00;;;;;;;0.50;0.50;;;;;;;5.14;87.45;97407.53;29395;263;63005;-92
2023/05/17 04:51:03;;;;;;;0.60;0.60;;;;;;;5.13;86.48;97400.50;29395;208;63009;-91
2023/05/17 04:52:00;;;;;;;0.60;0.60;;;;;;;5.19;87.10;97410.28;29395;203;63004;-92
2023/05/17 04:53:14;;;;;;;0.50;0.50;;;;;;;5.27;87.61;97412.53;29394;205;64013;-92
2023/05/17 04:54:36;;;;;;;0.60;0.60;;;;;;;5.31;85.97;97407.50;29395;203;63005;-94
2023/05/17 04:55:52;;;;;;;;;;;;;;;;;;;;;
2023/05/17 04:57:05;;;;;;;0.60;0.60;;;;;;;5.51;84.74;97405.09;29373;203;63004;-92
2023/05/17 04:57:40;;;;;;;0.60;0.60;;;;;;;5.51;84.33;97413.19;29394;285;64013;-93
2023/05/17 04:58:29;;;;;;;0.50;0.50;;;;;;;5.56;84.50;97413.22;29395;273;63004;-92
2023/05/17 04:59:06;;;;;;;0.50;0.50;;;;;;;5.52;84.93;97404.03;29395;218;63009;-92
2023/05/17 04:59:46;;;;;;;0.60;0.60;;;;;;;5.55;84.36;97414.28;29395;223;63004;-89
2023/05/17 05:00:35;;;;;;;0.52;0.52;;;;;;;5.60;84.53;97417.06;29395;223;63008;-93
2023/05/17 05:01:40;;;;;;;0.60;0.60;;;;;;;5.58;83.81;97423.75;29395;370;63005;-91
2023/05/17 05:02:29;;;;;;;0.60;0.60;;;;;;;5.64;83.78;97418.19;29395;244;63009;-91
2023/05/17 05:04:05;;;;;;;0.60;0.60;;;;;;;5.65;83.28;97413.62;29416;204;64009;-90
2023/05/17 05:05:31;;;;;;;0.60;0.60;;;;;;;5.66;83.22;97420.62;29394;225;64013;-92
2023/05/17 05:06:21;;;;;;;0.60;0.60;;;;;;;5.62;83.37;97419.50;29417;206;63004;-90
2023/05/17 05:07:56;;;;;;;;;;;;;;;;;;;;;
2023/05/17 05:09:34;;;;;;;0.60;0.60;;;;;;;5.67;83.39;97427.66;29395;275;63005;-92
2023/05/17 05:11:32;;;;;;;0.50;0.50;;;;;;;5.76;83.39;97420.78;29394;196;64013;-92
2023/05/17 05:15:10;;;;;;;0.60;0.60;;;;;;;5.78;82.68;97429.44;29395;215;63009;-55
2023/05/17 05:15:41;;;;;;;0.60;0.60;;;;;;;5.77;82.09;97432.37;29395;258;63009;-55
2023/05/17 05:16:13;;;;;;;0.50;0.50;;;;;;;5.74;82.26;97431.00;29395;197;63005;-55
2023/05/17 05:16:44;;;;;;;0.60;0.60;;;;;;;5.76;83.05;97431.56;29395;255;63009;-55
2023/05/17 05:17:16;;;;;;;0.50;0.50;;;;;;;5.76;83.33;97431.56;29395;216;63005;-54
2023/05/17 05:17:47;;;;;;;0.50;0.50;;;;;;;5.78;83.47;97434.00;29395;313;63009;-54
2023/05/17 05:18:19;;;;;;;0.60;0.60;;;;;;;5.78;83.37;97429.44;29394;300;64020;-54
2023/05/17 05:18:50;;;;;;;0.52;0.52;;;;;;;5.80;82.98;97432.69;29395;214;63009;-54
2023/05/17 05:19:25;;;;;;;0.60;0.60;;;;;;;5.81;83.02;97439.72;29395;302;63004;-54
2023/05/17 05:19:57;;;;;;;0.52;0.52;;;;;;;5.81;83.01;97434.31;29395;250;63009;-54
2023/05/17 05:20:28;;;;;;;0.50;0.50;;;;;;;5.81;82.97;97436.19;29395;229;63000;-54
2023/05/17 05:21:00;;;;;;;0.60;0.60;;;;;;;5.81;82.97;97430.81;29395;221;63009;-55
2023/05/17 05:21:31;;;;;;;0.50;0.50;;;;;;;5.81;83.00;97434.31;29395;226;63004;-54
2023/05/17 05:22:02;;;;;;;0.60;0.60;;;;;;;5.81;82.92;97439.72;29395;225;63004;-54
2023/05/17 05:22:33;;;;;;;0.50;0.50;;;;;;;5.77;82.52;97443.97;29395;224;63004;-54
2023/05/17 05:23:05;;;;;;;0.60;0.60;;;;;;;5.78;82.81;97434.81;29395;225;63009;-54
2023/05/17 05:23:36;;;;;;;0.50;0.50;;;;;;;5.81;82.97;97434.31;29394;289;64009;-55
2023/05/17 05:24:08;;;;;;;0.50;0.50;;;;;;;5.83;82.26;97437.59;29395;224;63009;-54
2023/05/17 05:24:42;;;;;;;0.50;0.50;;;;;;;5.85;81.80;97446.22;29395;230;63005;-54
2023/05/17 05:25:14;;;;;;;0.50;0.50;;;;;;;5.85;81.97;97445.41;29395;204;63009;-54
2023/05/17 05:26:54;;;;;;;0.56;0.56;;;;;;;5.92;82.17;97446.88;88174;256;64021;-55
2023/05/17 05:27:25;;;;;;;0.50;0.50;;;;;;;5.96;82.26;97441.81;29394;207;64009;-54
2023/05/17 05:27:58;;;;;;;0.50;0.50;;;;;;;5.98;82.02;97443.19;29395;285;63007;-57
2023/05/17 05:28:29;;;;;;;0.50;0.50;;;;;;;6.03;82.02;97448.63;29394;202;64013;-57
2023/05/17 05:29:01;;;;;;;0.50;0.50;;;;;;;6.08;81.94;97444.38;29395;291;63014;-54
2023/05/17 05:29:32;;;;;;;0.70;0.70;;;;;;;6.09;81.07;97435.25;29395;219;63009;-55
2023/05/17 05:30:04;;;;;;;0.60;0.60;;;;;;;6.09;80.37;97441.44;29395;224;63004;-54
2023/05/17 05:30:37;;;;;;;0.60;0.60;;;;;;;6.09;80.49;97443.31;29395;206;63004;-54
2023/05/17 05:31:08;;;;;;;0.50;0.50;;;;;;;6.09;80.44;97449.53;29395;196;63007;-55
2023/05/17 05:31:39;;;;;;;0.50;0.50;;;;;;;6.10;80.55;97450.34;29395;261;63009;-54
2023/05/17 05:32:10;;;;;;;0.50;0.50;;;;;;;6.14;80.67;97448.78;29395;198;63004;-54
2023/05/17 05:32:41;;;;;;;0.60;0.60;;;;;;;6.17;80.42;97437.50;29395;210;63008;-54
2023/05/17 05:33:13;;;;;;;0.60;0.60;;;;;;;6.18;80.39;97445.34;29395;211;63005;-54
2023/05/17 05:33:44;;;;;;;0.57;0.57;;;;;;;6.19;80.45;97446.97;29394;214;64014;-53
2023/05/17 05:34:16;;;;;;;0.60;0.60;;;;;;;6.25;80.59;97439.72;29395;274;63005;-54
2023/05/17 05:34:47;;;;;;;0.50;0.50;;;;;;;6.28;80.02;97450.00;29395;202;63009;-54
2023/05/17 05:35:19;;;;;;;0.50;0.50;;;;;;;6.29;79.99;97447.06;29394;244;64009;-57
2023/05/17 05:35:51;;;;;;;0.50;0.50;;;;;;;6.30;80.28;97447.87;29394;263;64007;-54
2023/05/17 05:36:22;;;;;;;0.50;0.50;;;;;;;6.30;79.52;97447.87;29395;287;63005;-55
2023/05/17 05:36:53;;;;;;;0.50;0.50;;;;;;;6.29;79.08;97447.06;29395;252;63009;-54
2023/05/17 05:37:25;;;;;;;0.60;0.60;;;;;;;6.29;79.30;97446.25;29395;217;63004;-54
2023/05/17 05:37:58;;;;;;;0.60;0.60;;;;;;;6.29;79.79;97446.25;29395;233;63026;-53
2023/05/17 05:38:29;;;;;;;0.50;0.50;;;;;;;6.30;79.81;97448.69;29395;218;63004;-54
2023/05/17 05:39:01;;;;;;;0.50;0.50;;;;;;;6.31;79.73;97444.12;29394;269;64000;-54
2023/05/17 05:39:32;;;;;;;0.50;0.50;;;;;;;6.32;80.31;97453.84;29395;245;63004;-55
2023/05/17 05:40:05;;;;;;;0.50;0.50;;;;;;;6.37;80.63;97448.50;29395;229;63008;-55
2023/05/17 05:40:37;;;;;;;0.50;0.50;;;;;;;6.42;79.84;97453.13;29395;203;63005;-55
2023/05/17 05:41:08;;;;;;;0.50;0.50;;;;;;;6.43;79.39;97450.19;29394;215;64014;-54
2023/05/17 05:41:40;;;;;;;0.50;0.50;;;;;;;6.43;79.29;97450.19;29395;300;63005;-54
2023/05/17 05:42:14;;;;;;;0.50;0.50;;;;;;;6.43;79.30;97447.50;29395;292;63005;-55
2023/05/17 05:42:45;;;;;;;0.50;0.50;;;;;;;6.43;79.03;97452.88;29395;199;63005;-56
2023/05/17 05:43:17;;;;;;;0.77;0.77;;;;;;;6.49;79.31;97445.69;29394;217;64013;-54
2023/05/17 05:43:49;;;;;;;0.50;0.50;;;;;;;6.50;79.17;97448.13;29395;213;63005;-56
2023/05/17 05:44:20;;;;;;;0.50;0.50;;;;;;;6.51;79.15;97444.34;29395;284;63009;-55
2023/05/17 05:44:52;;;;;;;0.50;0.50;;;;;;;6.52;78.62;97450.56;29395;218;63004;-54
2023/05/17 05:45:23;;;;;;;0.50;0.50;;;;;;;6.50;78.46;97450.00;29395;213;63009;-54
2023/05/17 05:45:54;;;;;;;0.50;0.50;;;;;;;6.47;79.08;97454.03;29395;205;63006;-54
2023/05/17 05:46:26;;;;;;;0.60;0.60;;;;;;;6.44;79.85;97453.72;29395;284;63009;-54
2023/05/17 05:46:57;;;;;;;0.60;0.60;;;;;;;6.43;79.70;97455.59;29395;202;63004;-55
2023/05/17 05:47:28;;;;;;;0.50;0.50;;;;;;;6.40;79.43;97453.38;29395;283;63008;-56
2023/05/17 05:47:59;;;;;;;0.50;0.50;;;;;;;6.40;79.47;97453.38;29395;223;63004;-54
2023/05/17 05:48:31;;;;;;;0.50;0.50;;;;;;;6.39;79.25;97457.16;29394;247;64014;-54
2023/05/17 05:49:02;;;;;;;0.60;0.60;;;;;;;6.38;80.40;97456.34;29394;251;64027;-56
2023/05/17 05:49:35;;;;;;;0.50;0.50;;;;;;;6.38;80.12;97450.94;29395;206;63009;-54
2023/05/17 05:50:10;;;;;;;0.50;0.50;;;;;;;6.39;79.95;97451.75;29395;198;63000;-54
2023/05/17 05:50:43;;;;;;;0.50;0.50;;;;;;;6.42;79.50;97455.84;29394;245;64013;-55
2023/05/17 05:51:14;;;;;;;0.50;0.50;;;;;;;6.43;79.23;97458.28;29395;216;63005;-54
2023/05/17 05:51:45;;;;;;;0.50;0.50;;;;;;;6.44;79.77;97462.59;29395;218;63009;-55
2023/05/17 05:52:16;;;;;;;0.50;0.50;;;;;;;6.44;79.62;97459.91;29395;211;63004;-54
2023/05/17 05:52:48;;;;;;;0.50;0.50;;;;;;;6.44;79.57;97459.91;29395;242;63009;-54
2023/05/17 05:53:19;;;;;;;0.50;0.50;;;;;;;6.44;78.97;97459.91;29395;207;63004;-54
2023/05/17 05:53:50;;;;;;;0.50;0.50;;;;;;;6.44;78.77;97459.91;29395;221;63017;-53